createdAt,value
2023-05-25T00:02:34.378Z,45.00
2023-05-25T00:06:01.302Z,45.60
2023-05-25T00:09:26.198Z,45.00
2023-05-25T00:12:49.872Z,45.00
2023-05-25T00:16:14.922Z,45.20
2023-05-25T00:19:42.481Z,45.20
2023-05-25T00:23:06.158Z,45.30
2023-05-25T00:26:29.709Z,45.40
2023-05-25T00:29:53.267Z,45.50
2023-05-25T00:33:18.291Z,45.70
2023-05-25T00:36:43.235Z,45.90
2023-05-25T00:40:14.199Z,46.00
2023-05-25T00:43:37.783Z,46.10
2023-05-25T00:47:02.988Z,46.00
2023-05-25T00:50:40.576Z,46.20
2023-05-25T00:54:04.288Z,46.50
2023-05-25T00:57:34.287Z,46.20
2023-05-25T01:01:01.038Z,46.40
2023-05-25T01:04:28.394Z,46.50
2023-05-25T01:07:56.969Z,46.30
2023-05-25T01:11:29.713Z,46.20
2023-05-25T01:14:55.914Z,46.10
2023-05-25T01:18:21.657Z,46.00
2023-05-25T01:21:58.018Z,45.90
2023-05-25T01:25:26.652Z,46.20
2023-05-25T01:28:54.481Z,46.00
2023-05-25T01:32:19.795Z,46.20
2023-05-25T01:35:44.426Z,46.20
2023-05-25T01:39:11.040Z,46.40
2023-05-25T01:42:35.025Z,46.40
2023-05-25T01:46:16.463Z,46.30
2023-05-25T01:49:57.213Z,46.80
2023-05-25T01:53:27.458Z,47.30
2023-05-25T01:56:56.406Z,46.70
2023-05-25T02:00:22.573Z,46.80
2023-05-25T02:03:50.161Z,46.70
2023-05-25T02:07:13.921Z,46.80
2023-05-25T02:10:37.529Z,46.80
2023-05-25T02:14:03.192Z,46.80
2023-05-25T02:17:28.710Z,46.90
2023-05-25T02:20:52.304Z,46.90
2023-05-25T02:24:16.086Z,47.00
2023-05-25T02:27:39.597Z,47.20
2023-05-25T02:31:05.473Z,47.30
2023-05-25T02:34:29.116Z,47.30
2023-05-25T02:37:53.650Z,47.30
2023-05-25T02:41:17.360Z,47.40
2023-05-25T02:44:41.359Z,47.40
2023-05-25T02:48:06.587Z,47.40
2023-05-25T02:51:32.381Z,47.70
2023-05-25T02:54:56.478Z,47.60
2023-05-25T02:58:27.571Z,47.70
2023-05-25T03:02:03.568Z,47.60
2023-05-25T03:05:28.818Z,47.80
2023-05-25T03:08:52.457Z,47.80
2023-05-25T03:12:16.164Z,48.00
2023-05-25T03:15:40.174Z,48.00
2023-05-25T03:19:05.449Z,48.20
2023-05-25T03:22:32.847Z,48.10
2023-05-25T03:25:56.577Z,48.30
2023-05-25T03:29:20.403Z,48.20
2023-05-25T03:32:44.074Z,48.20
2023-05-25T03:36:09.837Z,48.30
2023-05-25T03:39:34.764Z,48.40
2023-05-25T03:42:58.338Z,48.60
2023-05-25T03:46:22.366Z,48.60
2023-05-25T03:49:45.878Z,48.60
2023-05-25T03:53:09.805Z,48.90
2023-05-25T03:56:34.658Z,49.20
2023-05-25T03:59:58.853Z,49.40
2023-05-25T04:03:22.595Z,49.50
2023-05-25T04:06:48.910Z,49.70
2023-05-25T04:10:21.499Z,49.70
2023-05-25T04:13:46.784Z,50.10
2023-05-25T04:17:10.841Z,50.30
2023-05-25T04:20:37.986Z,50.60
2023-05-25T04:24:06.519Z,50.50
2023-05-25T04:27:30.774Z,50.60
2023-05-25T04:30:57.766Z,50.40
2023-05-25T04:34:44.812Z,50.50
2023-05-25T04:38:17.734Z,50.90
2023-05-25T04:41:41.544Z,51.20
2023-05-25T04:45:10.521Z,51.30
2023-05-25T04:48:38.399Z,51.50
2023-05-25T04:52:02.449Z,51.80
2023-05-25T04:55:27.965Z,52.00
2023-05-25T04:58:51.931Z,51.90
2023-05-25T05:02:16.880Z,51.70
2023-05-25T05:05:44.091Z,51.80
2023-05-25T05:09:13.280Z,51.70
2023-05-25T05:12:37.374Z,51.80
2023-05-25T05:16:02.340Z,51.70
2023-05-25T05:19:26.120Z,51.50
2023-05-25T05:22:53.062Z,51.30
2023-05-25T05:26:17.028Z,50.50
2023-05-25T05:29:41.033Z,50.30
2023-05-25T05:33:05.342Z,50.20
2023-05-25T05:36:45.329Z,50.20
2023-05-25T05:40:20.831Z,50.10
2023-05-25T05:43:46.538Z,50.20
2023-05-25T05:47:10.472Z,49.60
2023-05-25T05:50:34.903Z,49.20
2023-05-25T05:53:58.972Z,49.00
2023-05-25T05:57:24.415Z,49.00
2023-05-25T06:00:48.437Z,48.20
2023-05-25T06:04:12.463Z,47.60
2023-05-25T06:07:38.076Z,46.40
2023-05-25T06:11:02.028Z,45.50
2023-05-25T06:14:28.781Z,45.20
2023-05-25T06:17:56.786Z,45.20
2023-05-25T06:21:20.810Z,45.00
2023-05-25T06:24:46.233Z,44.90
2023-05-25T06:28:10.632Z,45.90
2023-05-25T06:31:36.469Z,47.00
2023-05-25T06:35:00.284Z,48.00
2023-05-25T06:38:25.214Z,48.50
2023-05-25T06:41:50.995Z,48.70
2023-05-25T06:45:24.292Z,48.50
2023-05-25T06:48:49.420Z,47.10
2023-05-25T06:52:13.020Z,45.50
2023-05-25T06:55:36.553Z,44.40
2023-05-25T06:59:00.247Z,44.10
2023-05-25T07:02:24.043Z,44.10
2023-05-25T07:05:49.221Z,44.00
2023-05-25T07:09:13.634Z,42.70
2023-05-25T07:12:37.328Z,42.50
2023-05-25T07:16:01.001Z,42.30
2023-05-25T07:19:24.652Z,42.20
2023-05-25T07:22:49.988Z,42.20
2023-05-25T07:26:15.614Z,42.20
2023-05-25T07:29:39.285Z,42.50
2023-05-25T07:33:02.965Z,42.70
2023-05-25T07:36:26.627Z,43.00
2023-05-25T07:39:51.533Z,43.30
2023-05-25T07:43:15.114Z,43.70
2023-05-25T07:46:38.830Z,44.00
2023-05-25T07:50:02.766Z,44.30
2023-05-25T07:53:26.543Z,43.80
2023-05-25T07:56:51.684Z,44.50
2023-05-25T08:00:16.541Z,44.90
2023-05-25T08:07:11.610Z,46.40
2023-05-25T08:10:35.183Z,47.40
2023-05-25T08:14:00.708Z,48.10
2023-05-25T08:17:24.717Z,49.40
2023-05-25T08:20:48.487Z,49.90
2023-05-25T08:24:12.336Z,50.50
2023-05-25T08:27:36.573Z,51.00
2023-05-25T08:31:01.850Z,50.60
2023-05-25T08:34:25.448Z,50.50
2023-05-25T08:37:48.996Z,49.00
2023-05-25T08:41:14.506Z,48.30
2023-05-25T08:44:40.511Z,46.70
2023-05-25T08:48:12.473Z,45.60
2023-05-25T08:51:38.650Z,45.20
2023-05-25T08:55:07.708Z,44.50
2023-05-25T08:58:35.521Z,43.60
2023-05-25T09:02:16.778Z,42.80
2023-05-25T09:05:42.611Z,41.80
2023-05-25T09:09:06.842Z,42.50
2023-05-25T09:12:32.624Z,41.70
2023-05-25T09:15:57.032Z,41.10
2023-05-25T09:19:21.699Z,40.70
2023-05-25T09:22:48.651Z,40.50
2023-05-25T09:26:12.657Z,40.90
2023-05-25T09:29:36.934Z,41.60
2023-05-25T09:33:12.063Z,41.60
2023-05-25T09:36:39.077Z,41.00
2023-05-25T09:40:05.509Z,41.00
2023-05-25T09:43:40.631Z,40.50
2023-05-25T09:47:08.104Z,39.70
2023-05-25T09:50:32.585Z,39.20
2023-05-25T09:53:56.518Z,39.00
2023-05-25T09:57:22.189Z,39.60
2023-05-25T10:00:46.453Z,40.30
2023-05-25T10:04:10.380Z,40.50
2023-05-25T10:07:35.158Z,40.00
2023-05-25T10:10:59.187Z,40.20
2023-05-25T10:14:29.779Z,39.70
2023-05-25T10:17:56.241Z,39.20
2023-05-25T10:21:21.676Z,39.90
2023-05-25T10:24:54.909Z,40.10
2023-05-25T10:28:27.597Z,40.40
2023-05-25T10:31:54.326Z,40.10
2023-05-25T10:35:20.555Z,39.60
2023-05-25T10:38:44.848Z,39.60
2023-05-25T10:42:09.347Z,39.20
2023-05-25T10:45:34.042Z,38.90
2023-05-25T10:49:02.365Z,38.40
2023-05-25T10:52:29.856Z,38.60
2023-05-25T10:56:04.400Z,37.60
2023-05-25T10:59:29.038Z,36.90
2023-05-25T11:02:55.835Z,37.00
2023-05-25T11:06:23.548Z,37.00
2023-05-25T11:09:59.779Z,37.00
2023-05-25T11:13:41.408Z,36.90
2023-05-25T11:17:07.936Z,36.80
2023-05-25T11:20:32.006Z,36.90
2023-05-25T11:23:59.664Z,37.00
2023-05-25T11:27:30.621Z,37.40
2023-05-25T11:30:54.521Z,37.50
2023-05-25T11:34:21.958Z,37.70
2023-05-25T11:37:53.566Z,37.90
2023-05-25T11:41:19.649Z,38.10
2023-05-25T11:44:43.592Z,38.90
2023-05-25T11:48:07.786Z,39.00
2023-05-25T11:51:32.349Z,38.80
2023-05-25T11:54:56.021Z,38.60
2023-05-25T11:58:21.769Z,38.90
2023-05-25T12:01:45.421Z,38.70
2023-05-25T12:05:11.068Z,38.60
2023-05-25T12:08:35.881Z,38.50
2023-05-25T12:12:00.735Z,38.80
2023-05-25T12:15:27.135Z,39.00
2023-05-25T12:18:52.305Z,38.60
2023-05-25T12:22:16.785Z,38.60
2023-05-25T12:25:50.449Z,38.40
2023-05-25T12:29:15.135Z,38.60
2023-05-25T12:36:44.451Z,38.60
2023-05-25T12:40:20.545Z,39.00
2023-05-25T12:43:44.483Z,38.80
2023-05-25T12:47:14.355Z,38.50
2023-05-25T12:50:38.108Z,39.00
2023-05-25T12:54:03.136Z,39.30
2023-05-25T12:57:36.252Z,39.40
2023-05-25T13:01:00.074Z,39.10
2023-05-25T13:04:24.032Z,39.40
2023-05-25T13:07:47.719Z,39.50
2023-05-25T13:11:12.674Z,39.40
2023-05-25T13:14:36.281Z,39.00
2023-05-25T13:18:00.154Z,38.80
2023-05-25T13:21:23.928Z,38.60
2023-05-25T13:24:47.518Z,39.10
2023-05-25T13:28:12.927Z,39.10
2023-05-25T13:31:36.619Z,39.10
2023-05-25T13:35:01.114Z,39.20
2023-05-25T13:38:24.897Z,38.90
2023-05-25T13:41:48.571Z,39.00
2023-05-25T13:45:14.143Z,38.90
2023-05-25T13:48:38.143Z,38.60
2023-05-25T13:52:01.916Z,38.40
2023-05-25T13:55:25.560Z,38.30
2023-05-25T13:58:49.679Z,37.50
2023-05-25T14:02:15.044Z,38.00
2023-05-25T14:05:38.990Z,38.00
2023-05-25T14:09:02.733Z,38.80
2023-05-25T14:12:27.745Z,38.20
2023-05-25T14:15:51.609Z,38.10
2023-05-25T14:19:17.408Z,38.10
2023-05-25T14:22:41.177Z,38.90
2023-05-25T14:26:05.687Z,38.20
2023-05-25T14:29:29.331Z,38.10
2023-05-25T14:32:53.041Z,38.00
2023-05-25T14:36:18.395Z,37.90
2023-05-25T14:39:42.119Z,37.80
2023-05-25T14:43:06.008Z,37.90
2023-05-25T14:46:29.582Z,37.90
2023-05-25T14:49:53.583Z,37.90
2023-05-25T14:53:19.524Z,38.00
2023-05-25T14:56:43.001Z,37.90
2023-05-25T15:00:08.197Z,38.30
2023-05-25T15:03:32.520Z,38.40
2023-05-25T15:06:56.398Z,38.40
2023-05-25T15:10:21.578Z,38.60
2023-05-25T15:13:45.377Z,38.80
2023-05-25T15:17:09.256Z,38.90
2023-05-25T15:20:33.357Z,39.00
2023-05-25T15:23:57.092Z,38.60
2023-05-25T15:27:22.200Z,38.60
2023-05-25T15:30:45.881Z,38.60
2023-05-25T15:34:11.139Z,38.60
2023-05-25T15:37:35.938Z,38.60
2023-05-25T15:40:59.825Z,38.60
2023-05-25T15:44:24.852Z,38.60
2023-05-25T15:47:49.111Z,38.70
2023-05-25T15:51:12.722Z,38.70
2023-05-25T15:54:36.463Z,38.80
2023-05-25T15:58:00.235Z,38.90
2023-05-25T16:01:25.508Z,38.90
2023-05-25T16:04:49.135Z,39.00
2023-05-25T16:08:13.972Z,39.00
2023-05-25T16:11:37.726Z,39.10
2023-05-25T16:15:01.409Z,39.10
2023-05-25T16:18:26.977Z,39.20
2023-05-25T16:21:51.187Z,39.30
2023-05-25T16:25:15.009Z,39.30
2023-05-25T16:28:38.923Z,39.50
2023-05-25T16:32:02.754Z,39.50
2023-05-25T16:35:27.894Z,39.60
2023-05-25T16:38:51.562Z,39.60
2023-05-25T16:42:15.189Z,39.60
2023-05-25T16:45:39.021Z,39.70
2023-05-25T16:49:02.644Z,39.80
2023-05-25T16:52:27.635Z,39.70
2023-05-25T16:55:51.560Z,39.80
2023-05-25T16:59:15.330Z,39.80
2023-05-25T17:02:39.278Z,39.80
2023-05-25T17:06:03.044Z,39.80
2023-05-25T17:09:28.613Z,39.90
2023-05-25T17:12:53.003Z,39.90
2023-05-25T17:16:18.951Z,40.00
2023-05-25T17:19:43.084Z,39.90
2023-05-25T17:23:08.723Z,40.00
2023-05-25T17:26:35.760Z,40.00
2023-05-25T17:29:59.798Z,40.10
2023-05-25T17:33:23.516Z,40.10
2023-05-25T17:36:48.038Z,40.20
2023-05-25T17:40:13.900Z,40.20
2023-05-25T17:43:38.853Z,40.40
2023-05-25T17:47:02.494Z,40.40
2023-05-25T17:50:26.540Z,40.30
2023-05-25T17:53:50.176Z,40.40
2023-05-25T17:57:13.763Z,40.40
2023-05-25T18:00:39.296Z,40.40
2023-05-25T18:04:03.289Z,40.40
2023-05-25T18:07:27.148Z,40.40
2023-05-25T18:10:52.719Z,40.60
2023-05-25T18:14:16.391Z,41.20
2023-05-25T18:17:41.543Z,40.60
2023-05-25T18:21:05.761Z,40.60
2023-05-25T18:24:29.303Z,40.70
2023-05-25T18:27:52.908Z,40.70
2023-05-25T18:31:16.502Z,40.80
2023-05-25T18:34:41.450Z,40.80
2023-05-25T18:38:05.174Z,40.90
2023-05-25T18:41:28.872Z,40.90
2023-05-25T18:44:52.390Z,41.10
2023-05-25T18:48:18.940Z,41.00
2023-05-25T18:51:44.734Z,41.10
2023-05-25T18:55:09.676Z,41.30
2023-05-25T18:58:33.308Z,41.30
2023-05-25T19:01:56.927Z,41.40
2023-05-25T19:05:21.551Z,41.30
2023-05-25T19:08:46.523Z,41.30
2023-05-25T19:12:10.363Z,41.40
2023-05-25T19:15:33.878Z,41.40
2023-05-25T19:18:57.436Z,41.40
2023-05-25T19:22:20.929Z,41.60
2023-05-25T19:25:46.665Z,41.70
2023-05-25T19:29:10.620Z,41.40
2023-05-25T19:32:34.647Z,41.70
2023-05-25T19:35:58.338Z,41.80
2023-05-25T19:39:22.160Z,42.20
2023-05-25T19:42:49.026Z,41.90
2023-05-25T19:46:12.684Z,41.90
2023-05-25T19:49:36.741Z,42.30
2023-05-25T19:53:01.436Z,42.60
2023-05-25T19:56:25.973Z,42.60
2023-05-25T19:59:51.117Z,42.90
2023-05-25T20:03:16.208Z,42.70
2023-05-25T20:06:40.733Z,42.90
2023-05-25T20:10:06.090Z,42.80
2023-05-25T20:13:29.799Z,42.80
2023-05-25T20:16:55.946Z,43.40
2023-05-25T20:20:19.920Z,43.40
2023-05-25T20:23:43.678Z,43.30
2023-05-25T20:27:07.516Z,43.50
2023-05-25T20:30:31.247Z,43.40
2023-05-25T20:33:56.241Z,43.50
2023-05-25T20:37:19.984Z,43.50
2023-05-25T20:40:43.907Z,43.80
2023-05-25T20:44:08.860Z,43.40
2023-05-25T20:47:32.829Z,44.00
2023-05-25T20:50:57.866Z,43.70
2023-05-25T20:54:21.722Z,44.00
2023-05-25T20:57:45.539Z,43.90
2023-05-25T21:01:09.576Z,43.00
2023-05-25T21:04:33.468Z,44.50
2023-05-25T21:07:58.671Z,44.40
2023-05-25T21:11:23.050Z,44.70
2023-05-25T21:14:46.857Z,45.10
2023-05-25T21:18:10.861Z,44.50
2023-05-25T21:21:35.136Z,44.70
2023-05-25T21:25:00.302Z,44.90
2023-05-25T21:28:24.818Z,44.90
2023-05-25T21:31:48.582Z,45.00
2023-05-25T21:35:12.614Z,45.20
2023-05-25T21:38:36.364Z,44.80
2023-05-25T21:42:01.849Z,44.90
2023-05-25T21:45:25.974Z,46.00
2023-05-25T21:48:49.856Z,44.90
2023-05-25T21:52:13.501Z,44.70
2023-05-25T21:55:37.066Z,44.80
2023-05-25T21:59:02.086Z,45.30
2023-05-25T22:02:26.008Z,45.70
2023-05-25T22:05:50.039Z,45.70
2023-05-25T22:09:13.725Z,46.20
2023-05-25T22:12:37.894Z,46.40
2023-05-25T22:16:03.263Z,45.80
2023-05-25T22:19:27.242Z,45.90
2023-05-25T22:22:50.937Z,45.50
2023-05-25T22:26:14.963Z,46.10
2023-05-25T22:29:38.663Z,45.80
2023-05-25T22:33:04.104Z,46.30
2023-05-25T22:36:27.927Z,46.20
2023-05-25T22:39:52.043Z,46.30
2023-05-25T22:43:16.070Z,46.00
2023-05-25T22:46:39.825Z,46.50
2023-05-25T22:50:05.159Z,46.20
2023-05-25T22:53:28.869Z,46.70
2023-05-25T22:56:52.641Z,46.50
2023-05-25T23:00:16.803Z,47.00
2023-05-25T23:03:40.592Z,46.60
2023-05-25T23:07:06.413Z,46.80
2023-05-25T23:10:30.112Z,46.70
2023-05-25T23:13:54.708Z,46.40
2023-05-25T23:17:18.509Z,46.60
2023-05-25T23:20:42.279Z,46.70
2023-05-25T23:24:08.004Z,46.80
2023-05-25T23:27:32.546Z,46.90
2023-05-25T23:30:56.371Z,46.90
2023-05-25T23:34:20.097Z,46.80
2023-05-25T23:37:43.986Z,47.20
2023-05-25T23:41:09.211Z,47.10
2023-05-25T23:44:33.065Z,47.30
2023-05-25T23:47:56.808Z,47.10
2023-05-25T23:51:20.972Z,47.30
2023-05-25T23:54:44.647Z,46.80
2023-05-25T23:58:09.688Z,47.40
